Time;durP1;ratioP1;P1;durP2;ratioP2;P2;SDS_P1;SDS_P2;PMS_P1;PMS_P2;Temp;Humidity;BMP_temperature;BMP_pressure;BME280_temperature;BME280_humidity;BME280_pressure;Samples;Min_cycle;Max_cycle;Signal;HPM_P1;HPM_P2
2023/06/21 00:00:00;;;;;;;53.65;32.28;;;;;;;19.92;100.00;101259.78;5046923;28;20082;-60
2023/06/21 00:02:25;;;;;;;47.45;29.70;;;;;;;19.86;100.00;101254.88;5047333;28;20081;-59
2023/06/21 00:04:55;;;;;;;51.17;31.17;;;;;;;19.85;100.00;101248.66;5030253;28;20047;-63
2023/06/21 00:07:23;;;;;;;47.50;30.35;;;;;;;19.86;100.00;101238.81;5047764;28;20040;-63
2023/06/21 00:09:49;;;;;;;61.70;32.10;;;;;;;19.78;100.00;101239.31;5047397;28;20021;-63
2023/06/21 00:12:14;;;;;;;50.33;30.25;;;;;;;19.79;100.00;101243.72;5047031;28;20170;-60
2023/06/21 00:14:39;;;;;;;52.47;32.22;;;;;;;19.74;100.00;101248.53;5046933;28;20602;-61
2023/06/21 00:17:05;;;;;;;49.50;29.85;;;;;;;19.74;100.00;101252.03;5046979;28;20053;-60
2023/06/21 00:19:30;;;;;;;49.50;32.17;;;;;;;19.72;100.00;101242.41;5047518;28;20039;-60
2023/06/21 00:21:57;;;;;;;50.53;30.77;;;;;;;19.70;100.00;101240.69;5037354;28;20048;-61
2023/06/21 00:24:23;;;;;;;44.00;27.80;;;;;;;19.71;100.00;101249.56;5039252;28;20036;-61
2023/06/21 00:26:48;;;;;;;44.85;28.38;;;;;;;19.66;100.00;101243.69;5046561;28;20044;-61
2023/06/21 00:29:13;;;;;;;54.30;31.10;;;;;;;19.64;100.00;101257.16;5047381;28;20033;-60
2023/06/21 00:31:39;;;;;;;51.97;29.25;;;;;;;19.62;100.00;101267.06;5046899;28;20032;-61
2023/06/21 00:34:04;;;;;;;41.15;26.67;;;;;;;19.60;100.00;101274.34;5028916;28;20040;-64
2023/06/21 00:36:29;;;;;;;54.20;31.25;;;;;;;19.64;100.00;101291.03;5045253;28;20112;-63
2023/06/21 00:38:55;;;;;;;53.50;30.73;;;;;;;19.59;100.00;101285.13;5043868;28;20452;-65
2023/06/21 00:41:20;;;;;;;49.50;30.17;;;;;;;19.59;100.00;101291.31;5046487;28;20127;-64
2023/06/21 00:43:45;;;;;;;49.85;29.67;;;;;;;19.59;100.00;101294.00;5047112;28;20049;-61
2023/06/21 00:46:11;;;;;;;48.28;30.02;;;;;;;19.59;100.00;101295.81;5046942;28;20041;-66
2023/06/21 00:48:36;;;;;;;45.70;28.77;;;;;;;19.54;100.00;101294.28;5051302;28;20052;-62
2023/06/21 00:51:01;;;;;;;50.65;30.25;;;;;;;19.55;100.00;101300.50;5041894;28;20090;-59
2023/06/21 00:53:28;;;;;;;50.92;30.13;;;;;;;19.55;100.00;101295.16;5038980;28;20025;-60
2023/06/21 00:55:55;;;;;;;49.92;29.58;;;;;;;19.49;100.00;101300.91;5047732;28;20060;-61
2023/06/21 00:58:20;;;;;;;49.55;31.20;;;;;;;19.41;100.00;101312.94;5048308;28;20075;-67
2023/06/21 01:00:47;;;;;;;53.50;29.48;;;;;;;19.47;100.00;101318.84;5029595;28;20428;-60
2023/06/21 01:03:12;;;;;;;50.70;30.20;;;;;;;19.43;100.00;101324.41;5043776;28;20029;-62
2023/06/21 01:05:39;;;;;;;60.00;32.10;;;;;;;19.40;100.00;101319.25;5028509;28;20024;-62
2023/06/21 01:08:07;;;;;;;56.25;32.20;;;;;;;19.41;100.00;101322.75;5047104;28;20029;-60
2023/06/21 01:11:10;;;;;;;59.13;31.88;;;;;;;19.42;100.00;101322.66;5045431;28;20025;-61
2023/06/21 01:13:57;;;;;;;59.13;31.70;;;;;;;19.38;100.00;101337.19;5042281;28;20473;-60
2023/06/21 01:16:26;;;;;;;58.55;33.28;;;;;;;19.38;100.00;101325.66;5025437;28;20055;-61
2023/06/21 01:18:52;;;;;;;64.10;34.88;;;;;;;19.35;100.00;101332.03;5028568;28;20033;-61
2023/06/21 01:21:22;;;;;;;65.47;34.00;;;;;;;19.36;100.00;101330.22;5045976;28;20029;-65
2023/06/21 01:24:22;;;;;;;61.45;34.00;;;;;;;19.34;100.00;101333.00;5048872;28;20029;-61
2023/06/21 01:27:12;;;;;;;65.18;35.45;;;;;;;19.31;100.00;101346.53;5030129;28;20094;-61
2023/06/21 01:29:39;;;;;;;63.17;35.85;;;;;;;19.27;100.00;101337.00;5048129;28;20037;-62
2023/06/21 01:32:05;;;;;;;65.70;36.63;;;;;;;19.26;100.00;101330.81;5098760;22;21777;-60
2023/06/21 01:34:32;;;;;;;70.07;35.10;;;;;;;19.26;100.00;101328.13;5022189;28;20040;-60
2023/06/21 01:36:58;;;;;;;60.05;33.85;;;;;;;19.21;100.00;101330.25;5028217;28;20025;-61
2023/06/21 01:39:28;;;;;;;62.65;34.53;;;;;;;19.24;100.00;101335.41;5046167;28;20073;-61
2023/06/21 01:41:54;;;;;;;70.15;34.72;;;;;;;19.27;100.00;101342.34;5027493;28;20392;-61
2023/06/21 01:44:19;;;;;;;60.50;32.83;;;;;;;19.25;100.00;101338.91;5046236;28;20028;-60
2023/06/21 01:46:45;;;;;;;65.00;33.95;;;;;;;19.29;100.00;101337.75;5046497;28;20388;-62
2023/06/21 01:49:13;;;;;;;63.15;33.00;;;;;;;19.29;100.00;101329.75;5044265;28;20044;-61
2023/06/21 01:51:39;;;;;;;58.25;30.30;;;;;;;19.26;100.00;101335.31;5046040;28;20472;-61
2023/06/21 01:54:05;;;;;;;67.80;32.40;;;;;;;19.26;100.00;101335.31;5029761;28;20040;-62
2023/06/21 01:56:31;;;;;;;57.63;31.23;;;;;;;19.25;100.00;101337.09;5028885;28;20029;-61
2023/06/21 01:58:56;;;;;;;58.13;30.25;;;;;;;19.29;100.00;101343.09;5030721;28;20025;-61
2023/06/21 02:01:22;;;;;;;64.63;31.00;;;;;;;19.23;100.00;101344.34;5047725;28;20033;-62
2023/06/21 02:03:59;;;;;;;55.08;29.67;;;;;;;19.28;100.00;101336.06;5030653;28;20025;-61
2023/06/21 02:06:29;;;;;;;58.88;31.50;;;;;;;19.31;100.00;101339.41;5047820;28;20052;-62
2023/06/21 02:08:59;;;;;;;55.72;31.42;;;;;;;19.32;100.00;101343.78;5048435;28;20029;-62
2023/06/21 02:11:24;;;;;;;54.47;29.58;;;;;;;19.38;100.00;101357.72;5029717;28;20028;-62
2023/06/21 02:13:52;;;;;;;56.47;31.15;;;;;;;19.30;100.00;101355.53;5048309;28;20025;-62
2023/06/21 02:16:18;;;;;;;56.92;31.35;;;;;;;19.37;100.00;101355.97;5030479;28;20477;-60
2023/06/21 02:18:44;;;;;;;57.28;33.17;;;;;;;19.38;100.00;101355.03;5048083;28;20033;-63
2023/06/21 02:21:09;;;;;;;52.00;30.48;;;;;;;19.39;100.00;101365.59;5048026;28;20033;-60
2023/06/21 02:23:35;;;;;;;59.13;30.95;;;;;;;19.37;100.00;101362.19;5048065;28;20048;-61
2023/06/21 02:26:00;;;;;;;53.58;31.15;;;;;;;19.35;100.00;101363.25;5046722;28;20052;-63
2023/06/21 02:28:25;;;;;;;56.70;30.13;;;;;;;19.30;100.00;101364.38;5047908;28;20040;-61
2023/06/21 02:30:51;;;;;;;55.03;32.13;;;;;;;19.31;100.00;101362.56;5047437;28;20389;-62
2023/06/21 02:33:16;;;;;;;55.38;32.28;;;;;;;19.34;100.00;101359.72;5047798;28;20106;-61
2023/06/21 02:35:41;;;;;;;59.83;30.63;;;;;;;19.36;100.00;101365.81;5047919;28;20040;-60
2023/06/21 02:38:07;;;;;;;56.03;30.42;;;;;;;19.35;100.00;101377.44;5046647;28;20021;-61
2023/06/21 02:40:32;;;;;;;61.67;31.50;;;;;;;19.35;100.00;101381.97;5047312;28;20427;-61
2023/06/21 02:42:57;;;;;;;62.85;32.13;;;;;;;19.33;100.00;101376.72;5046729;28;20423;-61
2023/06/21 02:45:23;;;;;;;56.70;32.72;;;;;;;19.36;100.00;101381.84;5047836;28;20044;-65
2023/06/21 02:47:48;;;;;;;56.47;32.00;;;;;;;19.38;100.00;101381.75;5047731;28;20021;-61
2023/06/21 02:50:16;;;;;;;57.70;32.47;;;;;;;19.35;100.00;101382.78;5047570;28;20469;-61
2023/06/21 02:52:41;;;;;;;58.05;31.23;;;;;;;19.35;100.00;101380.13;5029651;28;20025;-61
2023/06/21 02:55:07;;;;;;;59.00;32.92;;;;;;;19.38;100.00;101379.94;5029272;28;20040;-60
2023/06/21 02:57:33;;;;;;;60.92;32.40;;;;;;;19.34;100.00;101378.41;5047003;28;20036;-64
2023/06/21 02:59:59;;;;;;;66.22;34.05;;;;;;;19.37;100.00;101382.69;5047608;28;20040;-61
2023/06/21 03:02:33;;;;;;;60.50;32.90;;;;;;;19.41;100.00;101394.91;5047722;28;20021;-62
2023/06/21 03:04:59;;;;;;;59.15;32.47;;;;;;;19.38;100.00;101398.63;5047553;28;20025;-63
2023/06/21 03:07:26;;;;;;;55.53;31.20;;;;;;;19.37;100.00;101396.06;5047606;28;20040;-63
2023/06/21 03:09:51;;;;;;;63.15;32.78;;;;;;;19.34;100.00;101397.13;5028751;28;20500;-61
2023/06/21 03:12:16;;;;;;;63.95;33.30;;;;;;;19.35;100.00;101396.16;5047006;28;20091;-61
2023/06/21 03:14:42;;;;;;;59.30;32.22;;;;;;;19.40;100.00;101399.41;5047284;28;20044;-60
2023/06/21 03:17:09;;;;;;;58.13;31.73;;;;;;;19.42;100.00;101402.81;5047392;28;20036;-64
2023/06/21 03:19:34;;;;;;;55.95;31.40;;;;;;;19.45;100.00;101413.31;5047249;28;20025;-61
2023/06/21 03:22:00;;;;;;;52.58;30.73;;;;;;;19.54;100.00;101425.25;5046592;28;20025;-61
2023/06/21 03:24:26;;;;;;;52.35;30.52;;;;;;;19.56;100.00;101422.47;5047097;28;20748;-60
2023/06/21 03:26:53;;;;;;;53.40;29.13;;;;;;;19.60;100.00;101421.34;5046902;28;20052;-63
2023/06/21 03:29:18;;;;;;;54.33;29.17;;;;;;;19.66;100.00;101426.28;5046650;28;20020;-61
2023/06/21 03:31:43;;;;;;;49.53;28.05;;;;;;;19.64;100.00;101430.88;5046773;28;20025;-60
2023/06/21 03:34:09;;;;;;;46.45;26.85;;;;;;;19.68;100.00;101437.75;5047176;28;20069;-62
2023/06/21 03:36:34;;;;;;;44.85;26.25;;;;;;;19.63;100.00;101452.38;5046687;28;20494;-61
2023/06/21 03:39:00;;;;;;;45.13;25.58;;;;;;;19.66;100.00;101450.34;5047384;28;20024;-64
2023/06/21 03:41:25;;;;;;;37.50;22.45;;;;;;;19.68;100.00;101447.56;5046505;28;20108;-59
2023/06/21 03:43:50;;;;;;;36.63;20.98;;;;;;;19.60;100.00;101442.75;5046286;28;20021;-64
2023/06/21 03:46:18;;;;;;;33.08;19.63;;;;;;;19.59;100.00;101443.66;5047530;28;20033;-62
2023/06/21 03:48:43;;;;;;;34.45;17.50;;;;;;;19.60;100.00;101448.09;5046671;28;20021;-61
2023/06/21 03:51:08;;;;;;;28.58;17.00;;;;;;;19.65;100.00;101462.00;5031359;28;20391;-62
2023/06/21 03:53:34;;;;;;;26.42;15.80;;;;;;;19.64;100.00;101465.63;5013747;28;20065;-60
2023/06/21 03:55:59;;;;;;;23.88;14.10;;;;;;;19.68;100.00;101463.63;5030370;28;20026;-61
2023/06/21 03:58:24;;;;;;;21.73;13.65;;;;;;;19.76;100.00;101469.34;5031461;28;20029;-60
2023/06/21 04:00:50;;;;;;;21.45;13.05;;;;;;;19.68;100.00;101471.63;5031664;28;20060;-60
2023/06/21 04:03:15;;;;;;;17.00;11.48;;;;;;;19.76;100.00;101472.03;5043436;28;20025;-61
2023/06/21 04:05:40;;;;;;;14.65;9.40;;;;;;;19.82;100.00;101473.44;5050460;28;20519;-60
2023/06/21 04:08:06;;;;;;;17.08;10.07;;;;;;;19.91;100.00;101472.88;5031163;28;20036;-61
2023/06/21 04:10:31;;;;;;;13.57;8.07;;;;;;;19.93;100.00;101475.44;5047264;28;20025;-60
2023/06/21 04:12:56;;;;;;;11.43;7.60;;;;;;;20.00;100.00;101473.22;5049921;28;20060;-60
2023/06/21 04:15:22;;;;;;;16.15;7.78;;;;;;;20.00;100.00;101482.13;5050383;28;20025;-60
2023/06/21 04:17:49;;;;;;;11.70;6.55;;;;;;;20.00;100.00;101486.59;5050391;28;20027;-63
2023/06/21 04:20:15;;;;;;;11.30;6.25;;;;;;;20.01;100.00;101483.00;5049439;28;20099;-60
2023/06/21 04:22:41;;;;;;;9.20;5.47;;;;;;;20.04;100.00;101481.00;5049960;28;21040;-61
2023/06/21 04:25:09;;;;;;;11.20;5.47;;;;;;;20.08;100.00;101485.19;5036699;28;20167;-61
2023/06/21 04:27:34;;;;;;;7.38;4.97;;;;;;;20.04;100.00;101478.31;5048410;28;20494;-60
2023/06/21 04:30:00;;;;;;;11.27;4.63;;;;;;;20.06;100.00;101478.22;5049535;28;20047;-61
2023/06/21 04:32:31;;;;;;;7.70;4.30;;;;;;;20.08;100.00;101477.16;5050024;28;20465;-61
2023/06/21 04:34:56;;;;;;;12.23;4.80;;;;;;;20.12;100.00;101475.16;5049069;28;20047;-60
2023/06/21 04:37:23;;;;;;;8.80;4.63;;;;;;;20.12;100.00;101479.63;5050422;28;20477;-60
2023/06/21 04:39:48;;;;;;;6.55;4.13;;;;;;;20.20;100.00;101491.56;5031310;28;20183;-61
2023/06/21 04:42:13;;;;;;;8.13;4.78;;;;;;;20.32;100.00;101497.09;5049187;28;20652;-59
2023/06/21 04:44:39;;;;;;;9.07;4.60;;;;;;;20.34;100.00;101500.50;5031639;28;20017;-63
2023/06/21 04:47:04;;;;;;;10.40;5.03;;;;;;;20.33;100.00;101505.03;5048957;28;20028;-61
2023/06/21 04:49:30;;;;;;;6.28;3.75;;;;;;;20.39;100.00;101503.75;5048863;28;20033;-62
2023/06/21 04:51:57;;;;;;;6.13;4.05;;;;;;;20.48;100.00;101504.09;5049043;28;20021;-60
2023/06/21 04:54:25;;;;;;;8.23;4.60;;;;;;;20.52;100.00;101502.94;5048213;28;20082;-60
2023/06/21 04:56:51;;;;;;;8.98;3.97;;;;;;;20.56;100.00;101505.31;5048795;28;20098;-61
2023/06/21 04:59:17;;;;;;;7.97;4.28;;;;;;;20.60;100.00;101505.97;5035316;28;20061;-62
2023/06/21 05:01:42;;;;;;;7.28;4.07;;;;;;;20.58;100.00;101507.88;5028731;28;20029;-61
2023/06/21 05:04:07;;;;;;;7.93;4.60;;;;;;;20.49;100.00;101509.34;5028551;28;20043;-61
2023/06/21 05:06:33;;;;;;;8.13;4.07;;;;;;;20.56;100.00;101515.19;5038002;28;20104;-63
2023/06/21 05:08:58;;;;;;;7.82;4.68;;;;;;;20.53;100.00;101526.09;5048970;28;20101;-67
2023/06/21 05:11:23;;;;;;;6.25;3.72;;;;;;;20.41;100.00;101525.06;5038458;28;20120;-60
2023/06/21 05:13:49;;;;;;;6.18;3.35;;;;;;;20.35;100.00;101528.13;5011652;28;20060;-63
2023/06/21 05:16:14;;;;;;;6.35;3.05;;;;;;;20.33;100.00;101530.91;5033910;28;20100;-60
2023/06/21 05:18:39;;;;;;;7.53;3.15;;;;;;;20.26;100.00;101534.94;5037100;28;20025;-60
2023/06/21 05:21:05;;;;;;;8.60;3.08;;;;;;;20.10;100.00;101533.22;5035278;28;20029;-59
2023/06/21 05:23:30;;;;;;;4.90;2.72;;;;;;;20.08;100.00;101532.50;5040203;28;20063;-59
2023/06/21 05:25:55;;;;;;;6.75;2.78;;;;;;;20.07;100.00;101531.63;5046600;28;20604;-61
2023/06/21 05:28:21;;;;;;;6.22;3.00;;;;;;;20.06;100.00;101535.25;5048741;28;20028;-61
2023/06/21 05:30:46;;;;;;;7.68;2.63;;;;;;;20.05;100.00;101530.00;5048436;28;20044;-62
2023/06/21 05:33:11;;;;;;;9.45;3.20;;;;;;;20.02;100.00;101544.41;5048323;28;20052;-61
2023/06/21 05:35:37;;;;;;;5.70;3.08;;;;;;;20.01;100.00;101547.19;5029763;28;20032;-62
2023/06/21 05:38:03;;;;;;;5.32;2.88;;;;;;;20.03;100.00;101546.16;5048866;28;20035;-60
2023/06/21 05:40:28;;;;;;;4.20;2.38;;;;;;;20.17;100.00;101547.09;5030019;28;20037;-60
2023/06/21 05:42:53;;;;;;;4.55;2.80;;;;;;;20.28;100.00;101543.72;5048650;28;20017;-63
2023/06/21 05:45:20;;;;;;;4.80;2.80;;;;;;;20.26;100.00;101537.63;5049441;28;20060;-61
2023/06/21 05:47:45;;;;;;;4.13;2.20;;;;;;;20.28;100.00;101541.91;5047898;28;20078;-62
2023/06/21 05:50:10;;;;;;;6.13;2.60;;;;;;;20.35;100.00;101538.84;5041889;28;20112;-62
2023/06/21 05:52:36;;;;;;;7.45;2.60;;;;;;;20.42;100.00;101551.72;5036419;28;20013;-61
2023/06/21 05:55:01;;;;;;;9.07;2.88;;;;;;;20.50;100.00;101553.03;5028159;28;20036;-61
2023/06/21 05:57:26;;;;;;;6.80;2.50;;;;;;;20.47;100.00;101551.44;5028263;28;20476;-61
2023/06/21 05:59:53;;;;;;;6.13;2.70;;;;;;;20.58;100.00;101556.06;5027754;28;20112;-63
2023/06/21 06:02:18;;;;;;;6.43;2.47;;;;;;;20.51;100.00;101560.97;5028469;28;20022;-62
2023/06/21 06:04:44;;;;;;;6.22;2.50;;;;;;;20.49;100.00;101556.66;5028293;28;20029;-61
2023/06/21 06:07:09;;;;;;;7.00;3.05;;;;;;;20.51;100.00;101555.63;5027651;28;20025;-62
2023/06/21 06:09:34;;;;;;;6.65;2.60;;;;;;;20.55;100.00;101564.28;5028099;28;20029;-62
2023/06/21 06:12:00;;;;;;;5.45;2.35;;;;;;;20.58;100.00;101566.78;5027529;28;20028;-64
2023/06/21 06:14:25;;;;;;;4.72;2.53;;;;;;;20.65;100.00;101573.44;5009492;28;20030;-64
2023/06/21 06:16:50;;;;;;;8.50;2.72;;;;;;;20.64;100.00;101582.44;5016443;28;20056;-67
2023/06/21 06:19:16;;;;;;;4.05;2.28;;;;;;;20.71;100.00;101581.06;5041728;28;20212;-62
2023/06/21 06:21:41;;;;;;;7.82;2.63;;;;;;;20.79;100.00;101582.38;5046091;28;20078;-63
2023/06/21 06:24:07;;;;;;;4.78;2.25;;;;;;;20.80;100.00;101594.84;5027957;28;20033;-60
2023/06/21 06:26:32;;;;;;;5.60;2.08;;;;;;;20.78;100.00;101591.41;5045643;28;20025;-61
2023/06/21 06:28:57;;;;;;;48.42;5.93;;;;;;;20.74;100.00;101590.72;5046135;28;20108;-60
2023/06/21 06:31:25;;;;;;;9.93;2.30;;;;;;;20.72;100.00;101603.38;5045790;28;20017;-63
2023/06/21 06:33:51;;;;;;;5.95;1.90;;;;;;;20.74;100.00;101592.56;5053310;28;20374;-67
2023/06/21 06:36:16;;;;;;;6.75;2.28;;;;;;;20.76;100.00;101604.00;5063054;28;20036;-63
2023/06/21 06:38:46;;;;;;;5.50;1.92;;;;;;;20.86;100.00;101602.44;5035101;28;20036;-62
2023/06/21 06:41:12;;;;;;;3.58;1.65;;;;;;;20.79;100.00;101606.50;5026407;28;20261;-66
2023/06/21 06:43:37;;;;;;;5.05;1.63;;;;;;;20.83;100.00;101619.59;5026852;28;20101;-63
2023/06/21 06:46:02;;;;;;;4.30;1.85;;;;;;;20.69;100.00;101615.16;5037875;28;20093;-65
2023/06/21 06:48:28;;;;;;;7.68;1.80;;;;;;;20.76;100.00;101620.94;5047050;28;20045;-63
2023/06/21 06:50:53;;;;;;;5.80;2.00;;;;;;;20.83;100.00;101626.78;5045826;28;20462;-64
2023/06/21 06:53:18;;;;;;;6.40;2.40;;;;;;;20.83;100.00;101629.47;5046344;28;20029;-64
2023/06/21 06:55:44;;;;;;;4.97;1.95;;;;;;;20.92;100.00;101631.53;5046514;28;20070;-65
2023/06/21 06:58:09;;;;;;;3.45;2.03;;;;;;;20.94;100.00;101626.97;5045554;28;20029;-65
2023/06/21 07:00:35;;;;;;;5.55;1.75;;;;;;;21.06;100.00;101637.81;5028028;28;20025;-65
2023/06/21 07:03:00;;;;;;;5.32;2.15;;;;;;;21.08;100.00;101643.94;5045641;28;20029;-65
2023/06/21 07:05:26;;;;;;;5.55;1.92;;;;;;;21.17;100.00;101648.69;5021729;28;20074;-67
2023/06/21 07:07:52;;;;;;;8.43;2.22;;;;;;;21.14;100.00;101643.53;5025832;28;20025;-64
2023/06/21 07:10:18;;;;;;;5.82;2.15;;;;;;;21.26;100.00;101651.72;5025238;28;20473;-64
2023/06/21 07:12:43;;;;;;;6.45;1.83;;;;;;;21.20;100.00;101653.81;5030628;28;20108;-65
2023/06/21 07:15:09;;;;;;;3.85;2.10;;;;;;;21.28;100.00;101655.16;5014643;28;20290;-63
2023/06/21 07:17:34;;;;;;;4.70;1.88;;;;;;;21.41;100.00;101649.81;5041556;28;20109;-62
2023/06/21 07:19:59;;;;;;;4.30;1.92;;;;;;;21.41;100.00;101649.81;5032832;28;20074;-65
2023/06/21 07:22:25;;;;;;;3.03;2.00;;;;;;;21.44;100.00;101652.31;5035666;28;20082;-63
2023/06/21 07:24:50;;;;;;;5.40;1.70;;;;;;;21.36;100.00;101659.97;5036882;28;20052;-65
2023/06/21 07:27:15;;;;;;;4.53;1.60;;;;;;;21.35;100.00;101667.19;5039452;28;20116;-63
2023/06/21 07:29:41;;;;;;;3.30;1.80;;;;;;;21.49;100.00;101670.75;5038076;28;20028;-64
2023/06/21 07:32:06;;;;;;;3.20;1.52;;;;;;;21.48;100.00;101664.53;5041483;28;20021;-64
2023/06/21 07:34:32;;;;;;;3.17;1.80;;;;;;;21.65;100.00;101658.03;5042976;28;20052;-63
2023/06/21 07:36:57;;;;;;;4.38;1.52;;;;;;;21.54;100.00;101657.88;5044465;28;20108;-62
2023/06/21 07:39:23;;;;;;;2.50;1.50;;;;;;;21.62;100.00;101663.59;5022498;28;20053;-64
2023/06/21 07:41:48;;;;;;;5.25;1.90;;;;;;;21.64;100.00;101660.81;5014463;28;20025;-65
2023/06/21 07:44:13;;;;;;;5.03;1.98;;;;;;;21.61;100.00;101672.59;5041211;28;20384;-66
2023/06/21 07:46:39;;;;;;;4.95;2.00;;;;;;;21.71;100.00;101662.94;5036059;28;20102;-64
2023/06/21 07:49:04;;;;;;;4.32;1.70;;;;;;;21.78;100.00;101678.66;5037903;28;20005;-64
2023/06/21 07:51:29;;;;;;;4.20;1.92;;;;;;;21.88;100.00;101674.38;5036730;28;20059;-62
2023/06/21 07:53:55;;;;;;;6.53;1.80;;;;;;;21.92;100.00;101680.41;5041588;28;20465;-66
2023/06/21 07:56:20;;;;;;;5.20;1.90;;;;;;;21.94;100.00;101679.31;5040256;28;20021;-67
2023/06/21 07:58:47;;;;;;;7.85;1.83;;;;;;;21.89;100.00;101680.63;5042384;28;20082;-63
2023/06/21 08:01:12;;;;;;;4.63;1.80;;;;;;;22.08;100.00;101680.19;5036089;28;20021;-64
2023/06/21 08:03:38;;;;;;;4.13;1.70;;;;;;;22.15;100.00;101672.59;5041086;28;20033;-66
2023/06/21 08:06:04;;;;;;;4.00;2.00;;;;;;;22.14;100.00;101674.41;5044676;28;20025;-64
2023/06/21 08:08:29;;;;;;;5.38;1.85;;;;;;;22.08;100.00;101685.56;5012492;28;20071;-67
2023/06/21 08:10:56;;;;;;;7.05;2.35;;;;;;;22.21;100.00;101688.22;5042669;28;20107;-64
2023/06/21 08:13:22;;;;;;;4.70;1.95;;;;;;;22.27;100.00;101692.34;5036439;28;20041;-64
2023/06/21 08:15:48;;;;;;;4.50;2.00;;;;;;;22.01;100.00;101692.31;5036244;28;20125;-66
2023/06/21 08:18:13;;;;;;;4.28;1.92;;;;;;;22.30;100.00;101692.97;5039622;28;20108;-67
2023/06/21 08:20:40;;;;;;;4.70;2.33;;;;;;;22.27;100.00;101693.16;5036227;28;20408;-66
2023/06/21 08:23:06;;;;;;;4.72;2.00;;;;;;;22.41;100.00;101697.56;5050186;28;20033;-65
2023/06/21 08:25:31;;;;;;;7.00;2.25;;;;;;;22.41;100.00;101699.38;5042257;28;20027;-66
2023/06/21 08:27:57;;;;;;;6.22;2.08;;;;;;;22.53;100.00;101698.53;5044538;28;20117;-64
2023/06/21 08:30:22;;;;;;;6.13;2.40;;;;;;;22.54;100.00;101702.06;5044797;28;20036;-63
2023/06/21 08:32:47;;;;;;;3.00;2.10;;;;;;;22.51;100.00;101704.97;5052651;28;20041;-61
2023/06/21 08:35:13;;;;;;;5.93;2.42;;;;;;;22.59;100.00;101710.69;5041904;28;20071;-61
2023/06/21 08:37:39;;;;;;;3.70;1.85;;;;;;;22.55;100.00;101714.53;5036752;28;20033;-61
2023/06/21 08:40:06;;;;;;;5.25;2.05;;;;;;;22.61;100.00;101706.06;5045985;28;20384;-64
2023/06/21 08:42:32;;;;;;;5.65;2.13;;;;;;;22.82;100.00;101716.22;5044517;28;20064;-63
2023/06/21 08:44:57;;;;;;;6.20;1.98;;;;;;;22.82;100.00;101716.22;5027404;28;20041;-62
2023/06/21 08:47:26;;;;;;;5.10;1.90;;;;;;;22.93;100.00;101713.59;5044722;28;20374;-61
2023/06/21 08:49:53;;;;;;;6.93;2.55;;;;;;;22.96;100.00;101723.25;5044365;28;20115;-64
2023/06/21 08:52:22;;;;;;;9.35;2.45;;;;;;;23.00;100.00;101723.91;5027539;28;20584;-61
2023/06/21 08:54:51;;;;;;;;;;;;;;;23.08;100.00;101721.50;5024919;28;20102;-64
2023/06/21 08:57:23;;;;;;;5.30;2.72;;;;;;;23.03;100.00;101732.59;5022948;28;20356;-62
2023/06/21 09:00:02;;;;;;;4.43;2.13;;;;;;;23.04;100.00;101725.41;5026467;28;20480;-64
2023/06/21 09:02:45;;;;;;;4.00;2.30;;;;;;;23.03;100.00;101731.75;5039002;28;20025;-61
2023/06/21 09:05:14;;;;;;;2.17;1.90;;;;;;;23.08;100.00;101730.44;5025929;28;20041;-67
2023/06/21 09:07:41;;;;;;;4.75;2.35;;;;;;;23.09;100.00;101732.16;5030645;28;20028;-61
2023/06/21 09:10:07;;;;;;;5.80;2.78;;;;;;;23.17;100.00;101736.97;5023342;28;20091;-63
2023/06/21 09:12:34;;;;;;;5.68;2.45;;;;;;;23.28;100.00;101738.00;5020318;28;20049;-62
2023/06/21 09:14:59;;;;;;;8.90;2.92;;;;;;;23.21;100.00;101729.53;5039487;28;20025;-62
2023/06/21 09:17:25;;;;;;;4.95;2.33;;;;;;;23.31;100.00;101743.16;5036797;28;20018;-61
2023/06/21 09:19:50;;;;;;;4.95;2.40;;;;;;;23.40;100.00;101731.75;5057907;28;20028;-67
2023/06/21 09:22:16;;;;;;;5.22;2.90;;;;;;;23.45;100.00;101729.56;5043069;28;20102;-61
2023/06/21 09:24:41;;;;;;;7.45;3.33;;;;;;;23.44;100.00;101732.34;5044836;28;20078;-62
2023/06/21 09:27:06;;;;;;;6.32;2.60;;;;;;;23.31;100.00;101738.63;5043984;28;20431;-62
2023/06/21 09:29:32;;;;;;;6.63;3.08;;;;;;;23.45;100.00;101734.09;5028722;28;20573;-65
2023/06/21 09:31:57;;;;;;;6.03;2.80;;;;;;;23.52;100.00;101734.47;5044466;28;20036;-61
2023/06/21 09:34:23;;;;;;;5.30;2.60;;;;;;;23.71;100.00;101733.94;5045685;28;20286;-61
2023/06/21 09:36:48;;;;;;;6.22;2.75;;;;;;;23.71;100.00;101732.13;5041246;28;20368;-61
2023/06/21 09:39:13;;;;;;;5.95;2.67;;;;;;;23.78;100.00;101729.78;5042756;28;20378;-62
2023/06/21 09:41:39;;;;;;;6.78;3.75;;;;;;;23.92;100.00;101735.94;5045512;28;20032;-62
2023/06/21 09:44:04;;;;;;;7.22;3.33;;;;;;;23.92;100.00;101742.19;5043260;28;20021;-62
2023/06/21 09:46:30;;;;;;;4.03;2.47;;;;;;;23.91;99.54;101743.19;5037475;28;20342;-62
2023/06/21 09:49:08;;;;;;;5.75;2.60;;;;;;;23.98;100.00;101739.03;5043960;28;20031;-63
2023/06/21 09:51:33;;;;;;;4.20;2.50;;;;;;;23.99;98.27;101747.97;5043700;28;20568;-62
2023/06/21 09:54:03;;;;;;;5.25;2.58;;;;;;;24.09;96.99;101753.50;5038832;28;20101;-65
2023/06/21 09:56:32;;;;;;;4.55;2.53;;;;;;;24.17;97.70;101748.41;5043077;28;20068;-64
2023/06/21 09:58:57;;;;;;;4.00;2.50;;;;;;;24.37;98.41;101740.59;5040788;28;20078;-64
2023/06/21 10:01:24;;;;;;;3.83;2.50;;;;;;;24.34;98.21;101752.47;5043882;28;20041;-62
2023/06/21 10:03:49;;;;;;;6.03;2.10;;;;;;;24.40;94.38;101755.66;5026562;28;21611;-61
2023/06/21 10:06:17;;;;;;;2.70;1.50;;;;;;;24.32;88.76;101757.13;5043192;28;20025;-63
2023/06/21 10:08:43;;;;;;;2.88;1.67;;;;;;;24.61;90.33;101758.47;5044679;28;20025;-62
2023/06/21 10:11:09;;;;;;;2.08;1.42;;;;;;;24.51;87.22;101762.88;5040164;28;20534;-60
2023/06/21 10:13:37;;;;;;;3.80;1.85;;;;;;;24.43;89.33;101764.34;5042592;28;20029;-61
2023/06/21 10:16:03;;;;;;;2.78;1.45;;;;;;;24.61;89.14;101763.88;5021029;28;20040;-62
2023/06/21 10:18:29;;;;;;;2.63;1.45;;;;;;;24.56;86.35;101782.25;5042509;28;20028;-60
2023/06/21 10:21:02;;;;;;;2.22;1.77;;;;;;;24.79;85.86;101763.38;5043954;28;20484;-62
2023/06/21 10:23:31;;;;;;;5.03;1.85;;;;;;;24.89;89.80;101767.06;5036163;28;20045;-62
2023/06/21 10:26:00;;;;;;;5.70;2.20;;;;;;;24.88;88.61;101769.88;5044313;28;20104;-62
2023/06/21 10:28:27;;;;;;;5.55;1.85;;;;;;;24.87;85.59;101777.13;5045704;28;20477;-63
2023/06/21 10:30:56;;;;;;;4.53;2.00;;;;;;;24.96;85.92;101770.97;5046074;28;20435;-63
2023/06/21 10:33:21;;;;;;;;;;;;;;;25.06;86.85;101770.22;5047880;28;20037;-62
2023/06/21 10:35:48;;;;;;;5.45;1.90;;;;;;;25.09;88.67;101768.16;5047952;28;19923;-62
2023/06/21 10:38:30;;;;;;;4.20;2.05;;;;;;;25.19;85.89;101762.00;5046470;28;20029;-63
2023/06/21 10:40:56;;;;;;;3.97;2.03;;;;;;;25.16;84.15;101773.88;5046762;28;20028;-64
2023/06/21 10:43:21;;;;;;;2.85;2.15;;;;;;;25.18;86.89;101769.22;5046241;28;20039;-63
2023/06/21 10:45:47;;;;;;;11.98;2.50;;;;;;;25.29;86.94;101771.06;5047431;28;20381;-63
2023/06/21 10:48:14;;;;;;;5.70;2.10;;;;;;;25.51;86.45;101781.88;5040664;28;20036;-63
2023/06/21 10:50:40;;;;;;;2.92;2.50;;;;;;;25.73;86.14;101775.56;5039954;28;20025;-64
2023/06/21 10:53:08;;;;;;;5.18;2.38;;;;;;;25.83;82.74;101772.97;5023196;28;20102;-64
2023/06/21 10:55:34;;;;;;;5.75;2.40;;;;;;;25.89;82.37;101780.53;5044584;28;20033;-63
2023/06/21 10:57:59;;;;;;;3.95;2.08;;;;;;;25.89;83.42;101787.78;5019255;28;20056;-62
2023/06/21 11:00:25;;;;;;;5.60;2.53;;;;;;;25.92;84.32;101788.38;5042445;28;20420;-64
2023/06/21 11:02:51;;;;;;;4.78;2.95;;;;;;;25.89;83.42;101790.47;5045656;28;20033;-65
2023/06/21 11:05:18;;;;;;;6.25;3.00;;;;;;;26.05;83.08;101795.41;5030336;28;20025;-62
2023/06/21 11:07:58;;;;;;;6.40;2.40;;;;;;;25.85;81.58;101797.97;5048820;28;20540;-61